createdAt,value
2018-09-30T04:48:19.693Z,99.90
2018-09-30T04:50:48.214Z,99.90
2018-09-30T04:53:16.706Z,99.90
2018-09-30T04:55:45.209Z,99.90
2018-09-30T04:58:13.684Z,99.90
2018-09-30T05:00:42.182Z,99.90
2018-09-30T05:03:10.682Z,99.90
2018-09-30T05:05:39.252Z,99.90
2018-09-30T05:08:07.894Z,99.90
2018-09-30T05:10:36.399Z,99.90
2018-09-30T05:13:04.892Z,99.90
2018-09-30T05:15:33.405Z,99.90
2018-09-30T05:18:01.941Z,99.90
2018-09-30T05:20:30.461Z,99.90
2018-09-30T05:22:58.955Z,99.90
2018-09-30T05:25:27.514Z,99.90
2018-09-30T05:27:56.004Z,99.90
2018-09-30T05:30:24.482Z,99.90
2018-09-30T05:32:53.020Z,99.90
2018-09-30T05:35:21.507Z,99.90
2018-09-30T05:37:50.065Z,99.90
2018-09-30T05:40:18.554Z,99.90
2018-09-30T05:42:47.066Z,99.90
2018-09-30T05:45:15.554Z,99.90
2018-09-30T05:47:44.078Z,99.90
2018-09-30T05:50:12.596Z,99.90
2018-09-30T05:52:41.088Z,99.90
2018-09-30T05:55:09.644Z,99.90
2018-09-30T05:57:38.217Z,99.90
2018-09-30T06:00:06.849Z,99.90
2018-09-30T06:02:35.366Z,99.90
2018-09-30T06:05:03.947Z,99.90
2018-09-30T06:07:32.485Z,99.90
2018-09-30T06:10:01.001Z,99.90
2018-09-30T06:12:29.522Z,99.90
2018-09-30T06:14:58.054Z,99.90
2018-09-30T06:17:26.580Z,99.90
2018-09-30T06:19:55.070Z,99.90
2018-09-30T06:22:23.605Z,99.90
2018-09-30T06:24:52.083Z,99.90
2018-09-30T06:27:20.605Z,99.90
2018-09-30T06:29:49.080Z,99.90
2018-09-30T06:32:18.154Z,99.90
2018-09-30T06:34:46.737Z,99.90
2018-09-30T06:37:15.491Z,99.90
2018-09-30T06:39:44.100Z,99.90
2018-09-30T06:42:12.672Z,99.90
2018-09-30T06:44:41.412Z,99.90
2018-09-30T06:47:10.422Z,99.90
2018-09-30T06:49:38.936Z,99.90
2018-09-30T06:52:07.535Z,99.90
2018-09-30T06:54:36.112Z,99.90
2018-09-30T06:57:05.753Z,99.90
2018-09-30T06:59:34.338Z,99.90
2018-09-30T07:02:02.883Z,99.90
2018-09-30T07:04:31.461Z,99.90
2018-09-30T07:07:00.246Z,99.90
2018-09-30T07:09:28.775Z,99.90
2018-09-30T07:11:57.358Z,99.90
2018-09-30T07:14:25.838Z,99.90
2018-09-30T07:16:54.518Z,99.90
2018-09-30T07:19:23.012Z,99.90
2018-09-30T07:21:51.542Z,99.90
2018-09-30T07:24:20.077Z,99.90
2018-09-30T07:26:48.592Z,99.90
2018-09-30T07:29:20.216Z,99.90
2018-09-30T07:31:49.660Z,99.90
2018-09-30T07:34:18.313Z,99.90
2018-09-30T07:36:46.970Z,99.90
2018-09-30T07:39:16.259Z,99.90
2018-09-30T07:41:44.885Z,99.90
2018-09-30T07:44:13.497Z,99.90
2018-09-30T07:46:42.098Z,99.90
2018-09-30T07:49:11.744Z,99.90
2018-09-30T07:51:40.355Z,99.90
2018-09-30T07:54:09.194Z,99.90
2018-09-30T07:56:39.270Z,99.90
2018-09-30T07:59:10.424Z,99.90
2018-09-30T08:01:39.268Z,99.90
2018-09-30T08:04:08.224Z,99.90
2018-09-30T08:06:36.977Z,99.60
2018-09-30T08:09:07.554Z,99.50
2018-09-30T08:11:36.357Z,99.10
2018-09-30T08:14:04.986Z,98.70
2018-09-30T08:16:33.808Z,97.90
2018-09-30T08:19:02.470Z,97.70
2018-09-30T08:21:31.238Z,96.90
2018-09-30T08:23:59.848Z,95.80
2018-09-30T08:26:28.316Z,95.90
2018-09-30T08:28:56.869Z,95.60
2018-09-30T08:31:25.414Z,95.50
2018-09-30T08:33:54.185Z,95.60
2018-09-30T08:36:23.349Z,95.10
2018-09-30T08:38:51.905Z,95.20
2018-09-30T08:41:22.516Z,94.90
2018-09-30T08:43:51.165Z,94.90
2018-09-30T08:46:19.714Z,95.10
2018-09-30T08:48:48.285Z,94.90
2018-09-30T08:51:16.815Z,94.60
2018-09-30T08:53:45.408Z,94.50
2018-09-30T08:56:16.053Z,93.80
2018-09-30T08:58:47.159Z,93.30
2018-09-30T09:01:17.165Z,93.50
2018-09-30T09:03:45.799Z,92.90
2018-09-30T09:06:14.605Z,93.30
2018-09-30T09:08:43.224Z,92.20
2018-09-30T09:11:11.813Z,91.90
2018-09-30T09:13:40.582Z,91.10
2018-09-30T09:16:09.203Z,90.80
2018-09-30T09:18:39.148Z,89.00
2018-09-30T09:21:07.837Z,89.20
2018-09-30T09:23:36.454Z,88.60
2018-09-30T09:26:05.205Z,87.60
2018-09-30T09:28:33.755Z,87.20
2018-09-30T09:31:02.374Z,84.70
2018-09-30T09:33:31.011Z,84.70
2018-09-30T09:35:59.593Z,84.50
2018-09-30T09:38:28.379Z,82.80
2018-09-30T09:40:56.856Z,82.90
2018-09-30T09:43:25.384Z,81.40
2018-09-30T09:45:53.863Z,81.10
2018-09-30T09:48:22.505Z,81.00
2018-09-30T09:50:52.922Z,81.20
2018-09-30T09:53:21.673Z,80.70
2018-09-30T09:55:52.003Z,79.10
2018-09-30T09:58:23.423Z,79.50
2018-09-30T10:00:53.527Z,79.20
2018-09-30T10:03:24.064Z,79.10
2018-09-30T10:05:54.449Z,79.10
2018-09-30T10:08:25.774Z,79.20
2018-09-30T10:10:56.868Z,78.60
2018-09-30T10:13:27.295Z,77.10
2018-09-30T10:15:57.840Z,77.70
2018-09-30T10:18:28.958Z,77.60
2018-09-30T10:20:59.452Z,77.50
2018-09-30T10:23:32.215Z,78.80
2018-09-30T10:26:08.653Z,78.10
2018-09-30T10:28:44.384Z,77.10
2018-09-30T10:31:15.769Z,76.80
2018-09-30T10:33:46.418Z,77.00
2018-09-30T10:36:17.015Z,77.50
2018-09-30T10:38:45.835Z,76.80
2018-09-30T10:41:16.276Z,76.00
2018-09-30T10:43:47.873Z,76.20
2018-09-30T10:46:23.010Z,76.60
2018-09-30T10:48:53.105Z,76.70
2018-09-30T10:51:23.633Z,76.30
2018-09-30T10:53:55.845Z,75.80
2018-09-30T10:56:27.189Z,74.90
2018-09-30T10:58:57.599Z,75.20
2018-09-30T11:01:27.290Z,75.30
2018-09-30T11:03:57.349Z,75.10
2018-09-30T11:06:26.889Z,74.80
2018-09-30T11:08:57.939Z,73.80
2018-09-30T11:11:26.570Z,74.70
2018-09-30T11:13:55.136Z,74.70
2018-09-30T11:16:24.226Z,75.60
2018-09-30T11:18:52.729Z,73.60
2018-09-30T11:21:21.377Z,73.70
2018-09-30T11:23:49.917Z,72.60
2018-09-30T11:26:18.547Z,72.00
2018-09-30T11:28:48.171Z,70.30
2018-09-30T11:31:19.581Z,69.90
2018-09-30T11:33:49.187Z,70.60
2018-09-30T11:36:19.524Z,71.00
2018-09-30T11:38:49.395Z,71.00
2018-09-30T11:41:22.424Z,72.00
2018-09-30T11:43:53.674Z,71.60
2018-09-30T11:46:24.259Z,72.10
2018-09-30T11:48:52.989Z,72.70
2018-09-30T11:51:21.547Z,71.50
2018-09-30T11:53:52.545Z,72.00
2018-09-30T11:56:24.605Z,71.80
2018-09-30T11:58:54.725Z,72.20
2018-09-30T12:01:23.595Z,73.10
2018-09-30T12:03:53.891Z,72.90
2018-09-30T12:06:24.109Z,71.50
2018-09-30T12:08:55.498Z,71.50
2018-09-30T12:11:26.220Z,72.30
2018-09-30T12:13:56.458Z,72.50
2018-09-30T12:16:26.139Z,72.00
2018-09-30T12:18:56.238Z,71.70
2018-09-30T12:21:29.918Z,71.80
2018-09-30T12:24:00.471Z,73.70
2018-09-30T12:26:31.535Z,73.10
2018-09-30T12:29:01.830Z,72.90
2018-09-30T12:31:33.084Z,73.00
2018-09-30T12:34:03.725Z,72.50
2018-09-30T12:36:33.578Z,72.90
2018-09-30T12:39:04.565Z,72.90
2018-09-30T12:41:35.838Z,72.80
2018-09-30T12:44:04.554Z,73.00
2018-09-30T12:46:33.139Z,72.10
2018-09-30T12:49:01.910Z,72.70
2018-09-30T12:51:30.632Z,73.20
2018-09-30T12:53:59.294Z,73.10
2018-09-30T12:56:29.323Z,72.70
2018-09-30T12:58:57.898Z,72.40
2018-09-30T13:01:26.446Z,73.70
2018-09-30T13:03:55.560Z,73.90
2018-09-30T13:06:24.228Z,73.60
2018-09-30T13:08:52.735Z,72.90
2018-09-30T13:11:23.607Z,73.00
2018-09-30T13:13:52.177Z,72.50
2018-09-30T13:16:20.727Z,73.30
2018-09-30T13:18:49.339Z,73.90
2018-09-30T13:21:18.353Z,73.30
2018-09-30T13:23:46.910Z,73.80
2018-09-30T13:26:15.612Z,73.50
2018-09-30T13:28:44.191Z,72.60
2018-09-30T13:31:13.829Z,73.10
2018-09-30T13:33:42.420Z,72.70
2018-09-30T13:36:11.032Z,71.80
2018-09-30T13:38:39.634Z,71.00
2018-09-30T13:41:08.458Z,70.50
2018-09-30T13:43:36.726Z,71.80
2018-09-30T13:46:05.367Z,71.90
2018-09-30T13:48:33.864Z,71.00
2018-09-30T13:51:02.538Z,71.00
2018-09-30T13:53:31.148Z,69.50
2018-09-30T13:56:00.884Z,69.90
2018-09-30T13:58:29.511Z,67.30
2018-09-30T14:00:58.114Z,64.70
2018-09-30T14:03:26.829Z,56.10
2018-09-30T14:05:55.484Z,46.50
2018-09-30T14:08:24.082Z,39.20
2018-09-30T14:10:52.638Z,34.00
2018-09-30T14:13:21.466Z,29.50
2018-09-30T14:15:50.061Z,27.30
2018-09-30T14:18:18.590Z,26.00
2018-09-30T14:20:47.270Z,26.50
2018-09-30T14:23:15.834Z,25.30
2018-09-30T14:25:44.390Z,25.00
2018-09-30T14:28:13.027Z,24.40
2018-09-30T14:30:41.590Z,24.90
2018-09-30T14:33:12.462Z,25.30
2018-09-30T14:35:41.351Z,25.90
2018-09-30T14:38:11.102Z,26.00
2018-09-30T14:40:39.660Z,25.00
2018-09-30T14:43:09.480Z,24.80
2018-09-30T14:45:38.105Z,24.50
2018-09-30T14:48:08.372Z,25.10
2018-09-30T14:50:36.961Z,26.20
2018-09-30T14:53:07.300Z,26.60
2018-09-30T14:55:35.939Z,26.30
2018-09-30T14:58:04.489Z,26.90
2018-09-30T15:00:33.037Z,26.70
2018-09-30T15:03:01.568Z,26.80
2018-09-30T15:05:30.173Z,26.40
2018-09-30T15:07:58.783Z,26.60
2018-09-30T15:10:27.306Z,29.20
2018-09-30T15:12:55.840Z,31.10
2018-09-30T15:15:24.380Z,35.00
2018-09-30T15:17:52.895Z,37.00
2018-09-30T15:20:21.651Z,37.90
2018-09-30T15:22:50.790Z,39.10
2018-09-30T15:25:19.852Z,41.00
2018-09-30T15:27:48.478Z,42.10
2018-09-30T15:30:17.000Z,43.00
2018-09-30T15:32:45.606Z,44.50
2018-09-30T15:35:14.130Z,45.10
2018-09-30T15:37:42.659Z,47.60
2018-09-30T15:40:11.212Z,48.50
2018-09-30T15:42:39.773Z,49.90
2018-09-30T15:45:08.362Z,50.60
2018-09-30T15:47:36.946Z,52.50
2018-09-30T15:50:05.934Z,51.20
2018-09-30T15:52:34.483Z,53.20
2018-09-30T15:55:03.026Z,54.30
2018-09-30T15:57:32.393Z,53.80
2018-09-30T16:00:01.377Z,55.70
2018-09-30T16:02:29.957Z,55.80
2018-09-30T16:04:58.560Z,57.30
2018-09-30T16:07:27.081Z,59.50
2018-09-30T16:09:55.694Z,59.90
2018-09-30T16:12:24.314Z,61.70
2018-09-30T16:14:53.047Z,62.00
2018-09-30T16:17:22.554Z,63.60
2018-09-30T16:19:56.501Z,63.90
2018-09-30T16:22:25.113Z,65.30
2018-09-30T16:24:53.766Z,65.50
2018-09-30T16:27:22.694Z,66.40
2018-09-30T16:29:51.240Z,66.70
2018-09-30T16:32:19.747Z,67.50
2018-09-30T16:34:48.269Z,68.40
2018-09-30T16:37:16.842Z,68.40
2018-09-30T16:39:45.474Z,68.50
2018-09-30T16:42:14.011Z,69.00
2018-09-30T16:44:42.602Z,70.00
2018-09-30T16:47:11.274Z,70.80
2018-09-30T16:49:39.873Z,70.60
2018-09-30T16:52:08.456Z,70.80
2018-09-30T16:54:41.078Z,71.00
2018-09-30T16:57:10.479Z,71.50
2018-09-30T16:59:40.503Z,71.90
2018-09-30T17:02:11.764Z,72.40
2018-09-30T17:04:46.191Z,73.00
2018-09-30T17:07:16.098Z,73.50
2018-09-30T17:09:50.740Z,74.50
2018-09-30T17:12:21.991Z,77.00
2018-09-30T17:14:50.589Z,79.30
2018-09-30T17:17:19.173Z,79.70
2018-09-30T17:19:47.702Z,81.40
2018-09-30T17:22:17.094Z,81.50
2018-09-30T17:24:52.344Z,81.40
2018-09-30T17:27:23.478Z,83.20
2018-09-30T17:29:57.178Z,84.10
2018-09-30T17:32:30.220Z,84.80
2018-09-30T17:35:07.696Z,86.40
2018-09-30T17:37:37.213Z,85.80
2018-09-30T17:40:05.784Z,86.10
2018-09-30T17:42:34.275Z,85.70
2018-09-30T17:45:02.825Z,85.20
2018-09-30T17:47:31.343Z,85.20
2018-09-30T17:49:59.895Z,84.90
2018-09-30T17:52:28.441Z,84.90
2018-09-30T17:54:59.334Z,84.70
2018-09-30T17:57:30.921Z,84.70
2018-09-30T17:59:59.979Z,85.60
2018-09-30T18:02:31.342Z,85.50
2018-09-30T18:05:03.837Z,84.90
2018-09-30T18:07:35.499Z,85.50
2018-09-30T18:10:06.568Z,85.30
2018-09-30T18:12:36.450Z,84.70
2018-09-30T18:15:07.534Z,86.70
2018-09-30T18:17:37.640Z,89.00
2018-09-30T18:20:07.683Z,89.70
2018-09-30T18:22:38.323Z,90.00
2018-09-30T18:25:08.378Z,90.10
2018-09-30T18:27:38.957Z,90.20
2018-09-30T18:30:10.290Z,90.10
2018-09-30T18:32:39.905Z,90.00
2018-09-30T18:35:08.493Z,89.50
2018-09-30T18:37:39.105Z,90.60
2018-09-30T18:40:09.926Z,90.90
2018-09-30T18:42:44.361Z,91.70
2018-09-30T18:45:14.992Z,91.90
2018-09-30T18:47:47.503Z,91.90
2018-09-30T18:50:21.798Z,91.70
2018-09-30T18:52:53.606Z,91.90
2018-09-30T18:55:24.744Z,92.10
2018-09-30T18:57:58.125Z,92.10
2018-09-30T19:00:31.476Z,92.10
2018-09-30T19:03:03.504Z,91.90
2018-09-30T19:05:33.751Z,92.00
2018-09-30T19:08:07.162Z,91.90
2018-09-30T19:10:37.265Z,91.30
2018-09-30T19:13:08.622Z,91.30
2018-09-30T19:15:41.355Z,91.30
2018-09-30T19:18:21.213Z,91.60
2018-09-30T19:20:54.654Z,92.00
2018-09-30T19:23:24.581Z,92.30
2018-09-30T19:25:53.537Z,92.00
2018-09-30T19:28:22.046Z,92.00
2018-09-30T19:30:50.853Z,91.20
2018-09-30T19:33:19.410Z,90.60
2018-09-30T19:35:47.950Z,90.50
2018-09-30T19:38:16.688Z,90.10
2018-09-30T19:40:45.265Z,89.50
2018-09-30T19:43:13.801Z,90.00
2018-09-30T19:45:43.077Z,84.70
2018-09-30T19:48:11.720Z,86.70
2018-09-30T19:50:40.370Z,87.60
2018-09-30T19:53:11.877Z,84.80
2018-09-30T19:55:44.604Z,85.70
2018-09-30T19:58:27.675Z,84.30
2018-09-30T20:01:02.910Z,85.30
2018-09-30T20:06:15.066Z,85.40
2018-09-30T20:08:43.677Z,84.90
2018-09-30T20:11:12.342Z,85.20
2018-09-30T20:13:40.847Z,84.90
2018-09-30T20:16:09.818Z,84.40
2018-09-30T20:18:38.782Z,84.60
2018-09-30T20:21:08.300Z,85.00
2018-09-30T20:23:37.004Z,83.00
2018-09-30T20:26:06.624Z,82.60
2018-09-30T20:28:38.667Z,81.20
2018-09-30T20:31:08.975Z,80.10
2018-09-30T20:33:39.195Z,80.90
2018-09-30T20:36:08.637Z,80.30
2018-09-30T20:38:38.489Z,80.90
2018-09-30T20:41:10.408Z,80.30
2018-09-30T20:43:43.545Z,80.00
2018-09-30T20:46:14.565Z,79.40
2018-09-30T20:48:50.864Z,77.80
2018-09-30T20:51:22.607Z,77.40
2018-09-30T20:53:54.766Z,77.30
2018-09-30T20:56:25.322Z,77.10
2018-09-30T20:58:55.471Z,72.60
2018-09-30T21:01:25.660Z,73.00
2018-09-30T21:03:57.519Z,73.50
2018-09-30T21:06:28.542Z,70.60
2018-09-30T21:08:57.130Z,70.20
2018-09-30T21:11:25.927Z,69.10
2018-09-30T21:13:54.511Z,68.40
2018-09-30T21:16:23.061Z,68.80
2018-09-30T21:18:52.478Z,69.70
2018-09-30T21:21:21.100Z,69.30
2018-09-30T21:23:49.718Z,69.20
2018-09-30T21:26:18.307Z,68.80
2018-09-30T21:28:46.956Z,68.40
2018-09-30T21:31:15.518Z,67.50
2018-09-30T21:33:44.065Z,67.20
2018-09-30T21:36:12.670Z,67.90
2018-09-30T21:38:41.218Z,68.00
2018-09-30T21:41:09.778Z,68.50
2018-09-30T21:43:38.303Z,68.90
2018-09-30T21:46:06.887Z,69.30
2018-09-30T21:48:35.441Z,70.40
2018-09-30T21:51:04.067Z,70.90
2018-09-30T21:53:32.620Z,70.70
2018-09-30T21:56:01.145Z,71.10
